createdAt,value
2017-09-12T00:00:31.061Z,985.49
2017-09-12T00:01:31.054Z,985.49
2017-09-12T00:02:31.041Z,985.50
2017-09-12T00:03:31.042Z,985.47
2017-09-12T00:04:31.292Z,985.46
2017-09-12T00:05:31.017Z,985.49
2017-09-12T00:06:31.000Z,985.42
2017-09-12T00:07:30.991Z,985.41
2017-09-12T00:08:30.982Z,985.40
2017-09-12T00:09:31.003Z,985.39
2017-09-12T00:10:30.994Z,985.42
2017-09-12T00:11:30.953Z,985.42
2017-09-12T00:12:30.948Z,985.40
2017-09-12T00:13:30.940Z,985.37
2017-09-12T00:14:30.919Z,985.38
2017-09-12T00:15:31.231Z,985.39
2017-09-12T00:16:30.895Z,985.34
2017-09-12T00:17:30.900Z,985.37
2017-09-12T00:18:30.883Z,985.35
2017-09-12T00:19:30.868Z,985.35
2017-09-12T00:20:30.857Z,985.30
2017-09-12T00:21:31.146Z,985.47
2017-09-12T00:22:30.833Z,985.36
2017-09-12T00:23:30.821Z,985.42
2017-09-12T00:24:30.817Z,985.44
2017-09-12T00:25:30.801Z,985.42
2017-09-12T00:26:30.790Z,985.41
2017-09-12T00:27:30.814Z,985.46
2017-09-12T00:28:30.773Z,985.41
2017-09-12T00:29:30.765Z,985.46
2017-09-12T00:30:30.755Z,985.48
2017-09-12T00:31:31.057Z,985.48
2017-09-12T00:32:30.744Z,985.50
2017-09-12T00:33:30.715Z,985.53
2017-09-12T00:34:30.723Z,985.59
2017-09-12T00:35:30.691Z,985.53
2017-09-12T00:36:30.693Z,985.57
2017-09-12T00:37:31.052Z,985.52
2017-09-12T00:38:30.665Z,985.51
2017-09-12T00:39:30.662Z,985.56
2017-09-12T00:40:30.654Z,985.54
2017-09-12T00:41:30.635Z,985.58
2017-09-12T00:42:30.632Z,985.52
2017-09-12T00:43:30.939Z,985.57
2017-09-12T00:44:30.610Z,985.61
2017-09-12T00:45:30.586Z,985.57
2017-09-12T00:46:30.596Z,985.62
2017-09-12T00:47:30.580Z,985.65
2017-09-12T00:48:30.584Z,985.65
2017-09-12T00:49:30.914Z,985.68
2017-09-12T00:50:30.537Z,985.71
2017-09-12T00:51:30.538Z,985.68
2017-09-12T00:52:30.533Z,985.69
2017-09-12T00:53:30.518Z,985.69
2017-09-12T00:54:30.492Z,985.65
2017-09-12T00:55:30.712Z,985.64
2017-09-12T00:56:30.477Z,985.63
2017-09-12T00:57:30.481Z,985.63
2017-09-12T00:58:30.477Z,985.63
2017-09-12T00:59:30.454Z,985.64
2017-09-12T01:00:30.442Z,985.68
2017-09-12T01:01:30.465Z,985.73
2017-09-12T01:02:30.420Z,985.69
2017-09-12T01:03:30.414Z,985.70
2017-09-12T01:04:30.401Z,985.76
2017-09-12T01:05:30.746Z,985.77
2017-09-12T01:06:30.366Z,985.74
2017-09-12T01:07:30.401Z,985.76
2017-09-12T01:08:30.358Z,985.79
2017-09-12T01:09:30.343Z,985.79
2017-09-12T01:10:30.350Z,985.79
2017-09-12T01:11:30.358Z,985.82
2017-09-12T01:12:30.305Z,985.79
2017-09-12T01:13:30.307Z,985.77
2017-09-12T01:14:30.298Z,985.77
2017-09-12T01:15:30.289Z,985.76
2017-09-12T01:16:30.566Z,985.85
2017-09-12T01:17:30.263Z,985.83
2017-09-12T01:18:30.274Z,985.85
2017-09-12T01:19:30.236Z,985.84
2017-09-12T01:20:30.224Z,985.91
2017-09-12T01:21:30.225Z,985.89
2017-09-12T01:22:30.239Z,985.98
2017-09-12T01:23:30.195Z,985.95
2017-09-12T01:24:30.187Z,985.90
2017-09-12T01:25:30.184Z,985.91
2017-09-12T01:26:30.176Z,985.92
2017-09-12T01:27:30.437Z,985.92
2017-09-12T01:28:30.150Z,986.00
2017-09-12T01:29:30.143Z,985.99
2017-09-12T01:30:30.140Z,985.97
2017-09-12T01:31:30.124Z,985.95
2017-09-12T01:32:30.118Z,986.01
2017-09-12T01:33:30.478Z,986.04
2017-09-12T01:34:30.080Z,986.02
2017-09-12T01:35:30.076Z,985.99
2017-09-12T01:36:30.091Z,986.00
2017-09-12T01:37:30.056Z,986.01
2017-09-12T01:38:30.058Z,985.96
2017-09-12T01:39:30.477Z,985.97
2017-09-12T01:40:30.025Z,986.05
2017-09-12T01:41:30.016Z,985.99
2017-09-12T01:42:30.000Z,986.00
2017-09-12T01:43:29.989Z,985.98
2017-09-12T01:44:29.973Z,986.00
2017-09-12T01:45:30.001Z,985.97
2017-09-12T01:46:29.956Z,986.01
2017-09-12T01:47:29.941Z,985.96
2017-09-12T01:48:29.952Z,986.02
2017-09-12T01:49:30.301Z,985.94
2017-09-12T01:50:29.927Z,985.95
2017-09-12T01:51:29.911Z,985.91
2017-09-12T01:52:29.893Z,985.93
2017-09-12T01:53:29.891Z,985.97
2017-09-12T01:54:29.868Z,985.93
2017-09-12T01:55:29.904Z,985.94
2017-09-12T01:56:29.846Z,985.90
2017-09-12T01:57:29.861Z,985.95
2017-09-12T01:58:29.829Z,985.92
2017-09-12T01:59:29.820Z,985.99
2017-09-12T02:00:30.226Z,985.95
2017-09-12T02:01:29.798Z,985.93
2017-09-12T02:02:29.788Z,986.03
2017-09-12T02:03:29.787Z,986.02
2017-09-12T02:04:29.775Z,986.00
2017-09-12T02:05:29.769Z,986.05
2017-09-12T02:06:30.159Z,986.03
2017-09-12T02:07:29.754Z,986.03
2017-09-12T02:08:29.731Z,986.02
2017-09-12T02:09:29.711Z,986.04
2017-09-12T02:10:29.706Z,986.06
2017-09-12T02:11:29.692Z,986.00
2017-09-12T02:12:30.036Z,986.03
2017-09-12T02:13:29.695Z,986.01
2017-09-12T02:14:29.676Z,985.99
2017-09-12T02:15:29.669Z,986.06
2017-09-12T02:16:29.653Z,986.01
2017-09-12T02:17:29.645Z,986.01
2017-09-12T02:18:29.837Z,986.03
2017-09-12T02:19:29.614Z,985.97
2017-09-12T02:20:29.612Z,986.02
2017-09-12T02:21:29.597Z,986.04
2017-09-12T02:22:29.580Z,986.02
2017-09-12T02:23:29.577Z,986.05
2017-09-12T02:24:29.774Z,986.01
2017-09-12T02:25:29.553Z,986.06
2017-09-12T02:26:29.545Z,985.98
2017-09-12T02:27:29.516Z,986.00
2017-09-12T02:28:29.532Z,986.03
2017-09-12T02:29:29.501Z,985.97
2017-09-12T02:30:29.953Z,986.08
2017-09-12T02:31:29.493Z,985.97
2017-09-12T02:32:29.470Z,985.97
2017-09-12T02:33:29.486Z,985.97
2017-09-12T02:34:29.464Z,986.01
2017-09-12T02:35:29.449Z,985.96
2017-09-12T02:36:29.789Z,985.98
2017-09-12T02:37:29.423Z,985.98
2017-09-12T02:38:29.410Z,986.02
2017-09-12T02:39:29.394Z,986.00
2017-09-12T02:40:29.383Z,986.02
2017-09-12T02:41:29.387Z,986.04
2017-09-12T02:42:29.765Z,986.00
2017-09-12T02:43:29.363Z,986.02
2017-09-12T02:44:29.351Z,986.06
2017-09-12T02:45:29.346Z,986.00
2017-09-12T02:46:29.322Z,986.01
2017-09-12T02:47:29.317Z,986.01
2017-09-12T02:48:29.348Z,986.03
2017-09-12T02:49:29.307Z,986.00
2017-09-12T02:50:29.275Z,986.03
2017-09-12T02:51:29.279Z,986.03
2017-09-12T02:52:29.267Z,986.03
2017-09-12T02:53:29.600Z,986.04
2017-09-12T02:54:29.249Z,985.99
2017-09-12T02:55:29.242Z,986.00
2017-09-12T02:56:29.226Z,986.02
2017-09-12T02:57:29.216Z,986.05
2017-09-12T02:58:29.210Z,986.04
2017-09-12T02:59:29.542Z,986.06
2017-09-12T03:00:29.189Z,986.07
2017-09-12T03:01:29.168Z,986.11
2017-09-12T03:02:29.161Z,986.16
2017-09-12T03:03:29.150Z,986.14
2017-09-12T03:04:29.136Z,986.11
2017-09-12T03:05:29.153Z,986.14
2017-09-12T03:06:29.356Z,986.14
2017-09-12T03:07:29.110Z,986.15
2017-09-12T03:08:29.089Z,986.18
2017-09-12T03:09:29.089Z,986.16
2017-09-12T03:10:29.366Z,986.19
2017-09-12T03:11:29.055Z,986.20
2017-09-12T03:12:29.055Z,986.19
2017-09-12T03:13:29.034Z,986.19
2017-09-12T03:14:29.042Z,986.22
2017-09-12T03:15:29.012Z,986.13
2017-09-12T03:16:29.045Z,986.21
2017-09-12T03:17:29.018Z,986.23
2017-09-12T03:18:29.021Z,986.19
2017-09-12T03:19:28.985Z,986.19
2017-09-12T03:20:29.004Z,986.25
2017-09-12T03:21:28.963Z,986.18
2017-09-12T03:22:28.941Z,986.20
2017-09-12T03:23:28.948Z,986.21
2017-09-12T03:24:28.931Z,986.21
2017-09-12T03:25:29.360Z,986.18
2017-09-12T03:26:28.910Z,986.24
2017-09-12T03:27:28.898Z,986.24
2017-09-12T03:28:28.887Z,986.26
2017-09-12T03:29:28.889Z,986.22
2017-09-12T03:30:28.879Z,986.25
2017-09-12T03:31:28.878Z,986.29
2017-09-12T03:32:28.829Z,986.29
2017-09-12T03:33:28.830Z,986.29
2017-09-12T03:34:28.852Z,986.32
2017-09-12T03:35:28.847Z,986.33
2017-09-12T03:36:28.966Z,986.36
2017-09-12T03:37:28.795Z,986.28
2017-09-12T03:38:28.778Z,986.31
2017-09-12T03:39:28.770Z,986.34
2017-09-12T03:40:29.133Z,986.32
2017-09-12T03:41:28.751Z,986.34
2017-09-12T03:42:28.740Z,986.33
2017-09-12T03:43:28.729Z,986.38
2017-09-12T03:44:28.715Z,986.38
2017-09-12T03:45:28.727Z,986.40
2017-09-12T03:46:28.730Z,986.37
2017-09-12T03:47:28.689Z,986.39
2017-09-12T03:48:28.678Z,986.42
2017-09-12T03:49:28.658Z,986.39
2017-09-12T03:50:28.656Z,986.45
2017-09-12T03:51:28.856Z,986.39
2017-09-12T03:52:28.667Z,986.42
2017-09-12T03:53:28.631Z,986.40
2017-09-12T03:54:28.602Z,986.35
2017-09-12T03:55:28.601Z,986.38
2017-09-12T03:56:28.579Z,986.36
2017-09-12T03:57:28.870Z,986.38
2017-09-12T03:58:28.561Z,986.40
2017-09-12T03:59:28.555Z,986.43
2017-09-12T04:00:28.537Z,986.40
2017-09-12T04:01:28.538Z,986.43
2017-09-12T04:02:28.517Z,986.49
2017-09-12T04:03:28.852Z,986.49
2017-09-12T04:04:28.508Z,986.47
2017-09-12T04:05:28.505Z,986.50
2017-09-12T04:06:28.477Z,986.51
2017-09-12T04:07:28.475Z,986.44
2017-09-12T04:08:28.468Z,986.52
2017-09-12T04:09:28.495Z,986.53
2017-09-12T04:10:28.432Z,986.49
2017-09-12T04:11:28.812Z,986.48
2017-09-12T04:12:28.411Z,986.54
2017-09-12T04:13:28.412Z,986.53
2017-09-12T04:14:28.401Z,986.52
2017-09-12T04:15:28.393Z,986.52
2017-09-12T04:16:28.379Z,986.55
2017-09-12T04:17:28.401Z,986.62
2017-09-12T04:18:28.351Z,986.58
2017-09-12T04:19:28.337Z,986.60
2017-09-12T04:20:28.336Z,986.58
2017-09-12T04:21:28.530Z,986.58
2017-09-12T04:22:28.300Z,986.61
2017-09-12T04:23:28.296Z,986.62
2017-09-12T04:24:28.302Z,986.62
2017-09-12T04:25:28.292Z,986.63
2017-09-12T04:26:28.260Z,986.64
2017-09-12T04:27:28.514Z,986.69
2017-09-12T04:28:28.252Z,986.63
2017-09-12T04:29:28.246Z,986.66
2017-09-12T04:30:28.215Z,986.66
2017-09-12T04:31:28.220Z,986.65
2017-09-12T04:32:28.211Z,986.65
2017-09-12T04:33:28.484Z,986.63
2017-09-12T04:34:28.189Z,986.62
2017-09-12T04:35:28.166Z,986.72
2017-09-12T04:36:28.159Z,986.69
2017-09-12T04:37:28.165Z,986.73
2017-09-12T04:38:28.137Z,986.75
2017-09-12T04:39:28.478Z,986.73
2017-09-12T04:40:28.123Z,986.75
2017-09-12T04:41:28.116Z,986.77
2017-09-12T04:42:28.102Z,986.76
2017-09-12T04:43:28.094Z,986.75
2017-09-12T04:44:28.072Z,986.81
2017-09-12T04:45:28.092Z,986.79
2017-09-12T04:46:28.047Z,986.83
2017-09-12T04:47:28.381Z,986.86
2017-09-12T04:48:28.025Z,986.82
2017-09-12T04:49:28.015Z,986.85
2017-09-12T04:50:28.002Z,986.86
2017-09-12T04:51:28.013Z,986.88
2017-09-12T04:52:27.996Z,986.89
2017-09-12T04:53:28.419Z,986.88
2017-09-12T04:54:27.962Z,986.87
2017-09-12T04:55:27.957Z,986.89
2017-09-12T04:56:27.952Z,986.94
2017-09-12T04:57:27.948Z,986.91
2017-09-12T04:58:27.931Z,986.99
2017-09-12T04:59:28.330Z,986.96
2017-09-12T05:00:27.910Z,986.98
2017-09-12T05:01:27.886Z,987.03
2017-09-12T05:02:27.881Z,987.04
2017-09-12T05:03:27.865Z,987.07
2017-09-12T05:04:27.864Z,987.05
2017-09-12T05:05:28.055Z,987.07
2017-09-12T05:06:27.846Z,987.03
2017-09-12T05:07:27.828Z,987.06
2017-09-12T05:08:27.826Z,987.14
2017-09-12T05:09:27.804Z,987.10
2017-09-12T05:10:27.802Z,987.14
2017-09-12T05:11:28.006Z,987.07
2017-09-12T05:12:27.777Z,987.11
2017-09-12T05:13:27.773Z,987.15
2017-09-12T05:14:27.746Z,987.18
2017-09-12T05:15:27.756Z,987.20
2017-09-12T05:16:27.737Z,987.20
2017-09-12T05:17:27.894Z,987.28
2017-09-12T05:18:27.714Z,987.26
2017-09-12T05:19:27.699Z,987.24
2017-09-12T05:20:27.695Z,987.29
2017-09-12T05:21:27.692Z,987.28
2017-09-12T05:22:28.016Z,987.30
2017-09-12T05:23:27.668Z,987.30
2017-09-12T05:24:27.652Z,987.35
2017-09-12T05:25:27.631Z,987.33
2017-09-12T05:26:27.616Z,987.38
2017-09-12T05:27:27.621Z,987.41
2017-09-12T05:28:27.933Z,987.42
2017-09-12T05:29:27.601Z,987.43
2017-09-12T05:30:27.583Z,987.47
2017-09-12T05:31:27.575Z,987.46
2017-09-12T05:32:27.567Z,987.48
2017-09-12T05:33:27.550Z,987.46
2017-09-12T05:34:27.570Z,987.48
2017-09-12T05:35:27.532Z,987.46
2017-09-12T05:36:27.512Z,987.52
2017-09-12T05:37:27.501Z,987.47
2017-09-12T05:38:27.788Z,987.50
2017-09-12T05:39:27.478Z,987.48
2017-09-12T05:40:27.484Z,987.50
2017-09-12T05:41:27.464Z,987.54
2017-09-12T05:42:27.451Z,987.49
2017-09-12T05:43:27.432Z,987.50
2017-09-12T05:44:27.781Z,987.46
2017-09-12T05:45:27.425Z,987.50
2017-09-12T05:46:27.407Z,987.50
2017-09-12T05:47:27.407Z,987.53
2017-09-12T05:48:27.380Z,987.54
2017-09-12T05:49:27.387Z,987.58
2017-09-12T05:50:27.721Z,987.62
2017-09-12T05:51:27.362Z,987.66
2017-09-12T05:52:27.349Z,987.65
2017-09-12T05:53:27.332Z,987.65
2017-09-12T05:54:27.328Z,987.66
2017-09-12T05:55:27.314Z,987.70
2017-09-12T05:56:27.630Z,987.68
2017-09-12T05:57:27.283Z,987.76
2017-09-12T05:58:27.280Z,987.76
2017-09-12T05:59:27.277Z,987.76
2017-09-12T06:00:27.256Z,987.76
2017-09-12T06:01:27.247Z,987.80
2017-09-12T06:02:27.654Z,987.82
2017-09-12T06:03:27.235Z,987.80
2017-09-12T06:04:27.226Z,987.80
2017-09-12T06:05:27.202Z,987.84
2017-09-12T06:06:27.186Z,987.84
2017-09-12T06:07:27.186Z,987.91
2017-09-12T06:08:27.191Z,987.86
2017-09-12T06:09:27.179Z,987.88
2017-09-12T06:10:27.152Z,987.86
2017-09-12T06:11:27.603Z,987.88
2017-09-12T06:12:27.124Z,987.87
2017-09-12T06:13:27.114Z,987.86
2017-09-12T06:14:27.096Z,987.92
2017-09-12T06:15:27.100Z,987.92
2017-09-12T06:16:29.124Z,987.94
2017-09-12T06:17:27.284Z,987.88
2017-09-12T06:18:27.060Z,988.00
2017-09-12T06:19:27.062Z,987.94
2017-09-12T06:20:27.037Z,987.95
2017-09-12T06:21:27.042Z,988.00
2017-09-12T06:22:27.016Z,987.99
2017-09-12T06:23:27.047Z,987.98
2017-09-12T06:24:27.007Z,987.98
2017-09-12T06:25:27.004Z,987.97
2017-09-12T06:26:26.976Z,987.98
2017-09-12T06:27:27.398Z,988.01
2017-09-12T06:28:26.956Z,988.04
2017-09-12T06:29:26.953Z,988.04
2017-09-12T06:30:26.932Z,988.05
2017-09-12T06:31:26.932Z,988.07
2017-09-12T06:32:26.914Z,988.02
2017-09-12T06:33:27.252Z,988.03
2017-09-12T06:34:26.891Z,988.03
2017-09-12T06:35:26.887Z,988.06
2017-09-12T06:36:26.868Z,988.03
2017-09-12T06:37:26.855Z,988.04
2017-09-12T06:38:26.868Z,988.05
2017-09-12T06:39:27.240Z,988.07
2017-09-12T06:40:26.826Z,988.10
2017-09-12T06:41:26.820Z,988.08
2017-09-12T06:42:26.806Z,988.07
2017-09-12T06:43:26.793Z,988.05
2017-09-12T06:44:26.780Z,988.05
2017-09-12T06:45:27.059Z,988.12
2017-09-12T06:46:26.771Z,988.10
2017-09-12T06:47:26.759Z,988.10
2017-09-12T06:48:26.747Z,988.08
2017-09-12T06:49:26.741Z,988.08
2017-09-12T06:50:26.720Z,988.11
2017-09-12T06:51:27.163Z,988.14
2017-09-12T06:52:26.718Z,988.18
2017-09-12T06:53:26.696Z,988.17
2017-09-12T06:54:26.696Z,988.29
2017-09-12T06:55:26.666Z,988.20
2017-09-12T06:56:26.663Z,988.26
2017-09-12T06:57:26.677Z,988.29
2017-09-12T06:58:26.629Z,988.38
2017-09-12T06:59:26.631Z,988.26
2017-09-12T07:00:26.621Z,988.36
2017-09-12T07:01:26.635Z,988.45
2017-09-12T07:02:26.589Z,988.39
2017-09-12T07:03:26.594Z,988.39
2017-09-12T07:04:26.566Z,988.42
2017-09-12T07:05:26.566Z,988.41
2017-09-12T07:06:26.588Z,988.45
2017-09-12T07:07:26.549Z,988.50
2017-09-12T07:08:26.544Z,988.45
2017-09-12T07:09:26.514Z,988.50
2017-09-12T07:10:26.509Z,988.53
2017-09-12T07:11:26.810Z,988.52
2017-09-12T07:12:26.483Z,988.53
2017-09-12T07:13:26.478Z,988.51
2017-09-12T07:14:26.470Z,988.58
2017-09-12T07:15:26.458Z,988.60
2017-09-12T07:16:26.436Z,988.61
2017-09-12T07:17:26.875Z,988.63
2017-09-12T07:18:26.426Z,988.61
2017-09-12T07:19:26.401Z,988.69
2017-09-12T07:20:26.406Z,988.63
2017-09-12T07:21:26.398Z,988.70
2017-09-12T07:22:26.375Z,988.70
2017-09-12T07:23:26.731Z,988.73
2017-09-12T07:24:26.374Z,988.78
2017-09-12T07:25:26.339Z,988.80
2017-09-12T07:26:26.339Z,988.76
2017-09-12T07:27:26.317Z,988.88
2017-09-12T07:28:26.310Z,988.82
2017-09-12T07:29:26.601Z,988.85
2017-09-12T07:30:26.294Z,988.86
2017-09-12T07:31:26.280Z,988.85
2017-09-12T07:32:26.263Z,988.86
2017-09-12T07:33:26.261Z,988.86
2017-09-12T07:34:26.256Z,988.94
2017-09-12T07:35:26.577Z,988.91
2017-09-12T07:36:26.225Z,988.91
2017-09-12T07:37:26.208Z,989.02
2017-09-12T07:38:26.223Z,989.05
2017-09-12T07:39:26.200Z,989.04
2017-09-12T07:40:26.192Z,989.10
2017-09-12T07:41:26.577Z,989.09
2017-09-12T07:42:26.168Z,989.17
2017-09-12T07:43:26.161Z,989.08
2017-09-12T07:44:26.150Z,989.05
2017-09-12T07:45:26.138Z,989.07
2017-09-12T07:46:26.133Z,989.13
2017-09-12T07:47:26.138Z,989.17
2017-09-12T07:48:26.092Z,989.11
2017-09-12T07:49:26.086Z,989.16
2017-09-12T07:50:26.444Z,989.28
2017-09-12T07:51:26.072Z,989.25
2017-09-12T07:52:26.053Z,989.30
2017-09-12T07:53:26.049Z,989.37
2017-09-12T07:54:26.028Z,989.37
2017-09-12T07:55:26.018Z,989.35
2017-09-12T07:56:26.041Z,989.44
2017-09-12T07:57:26.004Z,989.34
2017-09-12T07:58:26.012Z,989.35
2017-09-12T07:59:25.983Z,989.39
2017-09-12T08:00:25.969Z,989.40
2017-09-12T08:01:26.272Z,989.45
2017-09-12T08:02:25.953Z,989.45
2017-09-12T08:03:25.932Z,989.48
2017-09-12T08:04:25.934Z,989.45
2017-09-12T08:05:25.928Z,989.53
2017-09-12T08:06:25.919Z,989.47
2017-09-12T08:07:25.940Z,989.55
2017-09-12T08:08:25.880Z,989.61
2017-09-12T08:09:25.871Z,989.58
2017-09-12T08:10:25.862Z,989.61
2017-09-12T08:11:25.854Z,989.64
2017-09-12T08:12:25.838Z,989.65
2017-09-12T08:13:26.140Z,989.68
2017-09-12T08:14:25.838Z,989.67
2017-09-12T08:15:25.806Z,989.69
2017-09-12T08:16:25.818Z,989.71
2017-09-12T08:17:25.793Z,989.71
2017-09-12T08:18:25.791Z,989.73
2017-09-12T08:19:25.979Z,989.72
2017-09-12T08:20:25.763Z,989.74
2017-09-12T08:21:25.744Z,989.78
2017-09-12T08:22:25.747Z,989.72
2017-09-12T08:23:25.723Z,989.75
2017-09-12T08:24:25.721Z,989.74
2017-09-12T08:25:25.734Z,989.81
2017-09-12T08:26:25.727Z,989.78
2017-09-12T08:27:25.687Z,989.78
2017-09-12T08:28:25.680Z,989.79
2017-09-12T08:29:25.677Z,989.80
2017-09-12T08:30:25.652Z,989.87
2017-09-12T08:31:25.683Z,989.96
2017-09-12T08:32:25.629Z,990.08
2017-09-12T08:33:25.635Z,989.93
2017-09-12T08:34:25.619Z,989.87
2017-09-12T08:35:25.615Z,989.83
2017-09-12T08:36:26.001Z,989.96
2017-09-12T08:37:25.596Z,989.91
2017-09-12T08:38:25.578Z,990.01
2017-09-12T08:39:25.571Z,990.05
2017-09-12T08:40:25.566Z,989.96
2017-09-12T08:41:25.541Z,990.00
2017-09-12T08:42:25.832Z,989.99
2017-09-12T08:43:25.521Z,990.08
2017-09-12T08:44:25.516Z,990.02
2017-09-12T08:45:25.510Z,990.07
2017-09-12T08:46:25.487Z,989.99
2017-09-12T08:47:54.771Z,990.03
2017-09-12T08:48:25.475Z,990.02
2017-09-12T08:49:25.466Z,990.08
2017-09-12T08:50:25.455Z,990.02
2017-09-12T08:51:25.447Z,990.12
2017-09-12T08:52:25.430Z,990.09
2017-09-12T08:53:26.273Z,990.08
2017-09-12T08:54:25.426Z,990.16
2017-09-12T08:55:25.408Z,990.16
2017-09-12T08:56:25.392Z,990.15
2017-09-12T08:57:25.382Z,990.15
2017-09-12T08:58:25.372Z,990.18
2017-09-12T08:59:25.399Z,990.22
2017-09-12T09:00:25.353Z,990.16
2017-09-12T09:01:25.345Z,990.14
2017-09-12T09:02:25.329Z,990.17
2017-09-12T09:03:25.682Z,990.26
2017-09-12T09:04:27.584Z,990.23
2017-09-12T09:05:25.359Z,990.16
2017-09-12T09:06:25.305Z,990.29
2017-09-12T09:07:25.291Z,990.22
2017-09-12T09:08:25.291Z,990.28
2017-09-12T09:09:25.706Z,990.18
2017-09-12T09:10:25.275Z,990.19
2017-09-12T09:11:25.820Z,990.24
2017-09-12T09:12:25.253Z,990.14
2017-09-12T09:13:25.225Z,990.19
2017-09-12T09:14:25.227Z,990.10
2017-09-12T09:15:25.638Z,990.13
2017-09-12T09:16:25.192Z,990.27
2017-09-12T09:17:25.185Z,990.24
2017-09-12T09:18:25.182Z,990.23
2017-09-12T09:19:25.165Z,990.27
2017-09-12T09:20:25.158Z,990.23
2017-09-12T09:21:25.229Z,990.22
2017-09-12T09:22:25.130Z,990.20
2017-09-12T09:23:26.083Z,990.21
2017-09-12T09:24:25.112Z,990.31
2017-09-12T09:25:25.104Z,990.26
2017-09-12T09:26:25.095Z,990.27
2017-09-12T09:27:25.078Z,990.24
2017-09-12T09:28:25.073Z,990.25
2017-09-12T09:29:25.437Z,990.29
2017-09-12T09:30:25.048Z,990.25
2017-09-12T09:31:25.049Z,990.28
2017-09-12T09:32:25.028Z,990.21
2017-09-12T09:33:25.025Z,990.32
2017-09-12T09:34:25.019Z,990.33
2017-09-12T09:35:25.315Z,990.34
2017-09-12T09:36:25.504Z,990.37
2017-09-12T09:37:25.335Z,990.38
2017-09-12T09:38:24.967Z,990.36
2017-09-12T09:39:24.965Z,990.33
2017-09-12T09:40:25.430Z,990.31
2017-09-12T09:41:24.975Z,990.30
2017-09-12T09:42:24.931Z,990.35
2017-09-12T09:43:25.374Z,990.37
2017-09-12T09:44:24.909Z,990.36
2017-09-12T09:45:24.912Z,990.36
2017-09-12T09:46:24.891Z,990.33
2017-09-12T09:47:24.886Z,990.39
2017-09-12T09:48:24.878Z,990.48
2017-09-12T09:49:25.082Z,990.44
2017-09-12T09:50:24.855Z,990.34
2017-09-12T09:51:24.846Z,990.47
2017-09-12T09:52:24.844Z,990.35
2017-09-12T09:53:24.848Z,990.41
2017-09-12T09:54:24.828Z,990.42
2017-09-12T09:55:24.841Z,990.36
2017-09-12T09:56:25.939Z,990.44
2017-09-12T09:57:24.800Z,990.43
2017-09-12T09:58:24.788Z,990.33
2017-09-12T09:59:24.785Z,990.47
2017-09-12T10:00:25.276Z,990.33
2017-09-12T10:01:24.744Z,990.38
2017-09-12T10:02:24.800Z,990.46
2017-09-12T10:03:24.727Z,990.41
2017-09-12T10:04:24.720Z,990.49
2017-09-12T10:05:24.711Z,990.49
2017-09-12T10:06:25.140Z,990.56
2017-09-12T10:07:24.686Z,990.52
2017-09-12T10:08:24.683Z,990.58
2017-09-12T10:09:24.671Z,990.59
2017-09-12T10:10:24.664Z,990.60
2017-09-12T10:11:24.650Z,990.58
2017-09-12T10:12:24.985Z,990.62
2017-09-12T10:13:24.640Z,990.65
2017-09-12T10:14:24.621Z,990.61
2017-09-12T10:15:24.612Z,990.69
2017-09-12T10:16:24.602Z,990.68
2017-09-12T10:17:25.025Z,990.78
2017-09-12T10:18:24.584Z,990.66
2017-09-12T10:19:24.588Z,990.75
2017-09-12T10:20:24.564Z,990.80
2017-09-12T10:21:24.555Z,990.68
2017-09-12T10:22:24.545Z,990.75
2017-09-12T10:23:24.746Z,990.84
2017-09-12T10:24:24.531Z,990.80
2017-09-12T10:25:24.534Z,990.79
2017-09-12T10:26:24.507Z,990.73
2017-09-12T10:27:24.501Z,990.80
2017-09-12T10:28:25.061Z,990.77
2017-09-12T10:29:24.923Z,990.74
2017-09-12T10:30:24.471Z,990.70
2017-09-12T10:31:24.464Z,990.74
2017-09-12T10:32:24.453Z,990.70
2017-09-12T10:33:24.452Z,990.68
2017-09-12T10:34:24.435Z,990.81
2017-09-12T10:35:24.814Z,990.79
2017-09-12T10:36:24.417Z,990.74
2017-09-12T10:37:24.418Z,990.74
2017-09-12T10:38:24.396Z,990.73
2017-09-12T10:39:24.395Z,990.77
2017-09-12T10:40:24.378Z,990.72
2017-09-12T10:41:24.402Z,990.65
2017-09-12T10:42:24.362Z,990.78
2017-09-12T10:43:24.489Z,990.81
2017-09-12T10:44:24.346Z,990.77
2017-09-12T10:45:24.336Z,990.85
2017-09-12T10:46:24.350Z,990.66
2017-09-12T10:47:24.317Z,990.71
2017-09-12T10:48:24.305Z,990.83
2017-09-12T10:49:24.743Z,990.85
2017-09-12T10:50:24.294Z,990.89
2017-09-12T10:51:24.277Z,990.83
2017-09-12T10:52:24.285Z,990.88
2017-09-12T10:53:24.263Z,990.86
2017-09-12T10:54:24.248Z,991.01
2017-09-12T10:55:24.283Z,990.91
2017-09-12T10:56:24.247Z,990.90
2017-09-12T10:57:24.225Z,990.74
2017-09-12T10:58:24.234Z,990.79
2017-09-12T10:59:24.216Z,990.79
2017-09-12T11:00:24.633Z,990.72
2017-09-12T11:01:24.184Z,990.80
2017-09-12T11:02:25.982Z,990.78
2017-09-12T11:03:24.196Z,990.76
2017-09-12T11:04:24.161Z,990.72
2017-09-12T11:05:24.157Z,990.74
2017-09-12T11:06:25.052Z,990.76
2017-09-12T11:07:24.155Z,990.75
2017-09-12T11:08:24.134Z,990.79
2017-09-12T11:09:24.142Z,990.93
2017-09-12T11:10:24.145Z,990.96
2017-09-12T11:11:24.139Z,990.89
2017-09-12T11:12:24.158Z,990.97
2017-09-12T11:13:24.083Z,991.04
2017-09-12T11:14:24.085Z,991.11
2017-09-12T11:15:24.062Z,991.11
2017-09-12T11:16:24.064Z,991.12
2017-09-12T11:17:24.494Z,991.06
2017-09-12T11:18:24.038Z,991.06
2017-09-12T11:19:24.037Z,991.10
2017-09-12T11:20:24.020Z,991.04
2017-09-12T11:21:24.015Z,991.06
2017-09-12T11:22:24.001Z,991.08
2017-09-12T11:23:24.024Z,991.07
2017-09-12T11:24:23.987Z,991.10
2017-09-12T11:25:23.975Z,991.03
2017-09-12T11:26:23.967Z,991.09
2017-09-12T11:27:24.033Z,991.08
2017-09-12T11:28:23.942Z,991.03
2017-09-12T11:29:23.957Z,991.09
2017-09-12T11:30:23.925Z,991.08
2017-09-12T11:31:23.950Z,991.17
2017-09-12T11:32:24.050Z,991.05
2017-09-12T11:33:24.029Z,991.09
2017-09-12T11:34:25.232Z,991.06
2017-09-12T11:35:23.906Z,990.98
2017-09-12T11:36:23.889Z,991.12
2017-09-12T11:37:24.173Z,991.13
2017-09-12T11:38:23.863Z,991.17
2017-09-12T11:39:23.858Z,991.12
2017-09-12T11:40:23.850Z,991.04
2017-09-12T11:41:23.833Z,991.02
2017-09-12T11:42:23.829Z,991.06
2017-09-12T11:43:24.240Z,990.99
2017-09-12T11:44:23.810Z,991.05
2017-09-12T11:45:23.820Z,991.08
2017-09-12T11:46:23.872Z,991.17
2017-09-12T11:47:23.789Z,991.18
2017-09-12T11:48:23.769Z,991.06
2017-09-12T11:49:24.484Z,991.25
2017-09-12T11:50:23.897Z,991.29
2017-09-12T11:51:23.740Z,991.24
2017-09-12T11:52:24.040Z,991.21
2017-09-12T11:53:23.734Z,991.16
2017-09-12T11:54:23.732Z,991.08
2017-09-12T11:55:23.702Z,991.08
2017-09-12T11:56:23.711Z,991.11
2017-09-12T11:57:23.704Z,991.19
2017-09-12T11:58:23.844Z,991.25
2017-09-12T11:59:23.678Z,991.24
2017-09-12T12:00:23.795Z,991.34
2017-09-12T12:01:23.706Z,991.39
2017-09-12T12:02:24.011Z,991.43
2017-09-12T12:03:23.820Z,991.52
2017-09-12T12:04:23.713Z,991.45
2017-09-12T12:05:23.745Z,991.46
2017-09-12T12:06:24.012Z,991.46
2017-09-12T12:07:23.898Z,991.48
2017-09-12T12:08:24.029Z,991.43
2017-09-12T12:09:23.617Z,991.40
2017-09-12T12:10:23.576Z,991.39
2017-09-12T12:11:23.683Z,991.42
2017-09-12T12:12:23.582Z,991.36
2017-09-12T12:13:24.860Z,991.41
2017-09-12T12:14:23.847Z,991.43
2017-09-12T12:15:23.560Z,991.40
2017-09-12T12:16:23.530Z,991.39
2017-09-12T12:17:23.539Z,991.42
2017-09-12T12:18:23.535Z,991.42
2017-09-12T12:19:23.506Z,991.40
2017-09-12T12:20:23.707Z,991.49
2017-09-12T12:21:23.485Z,991.56
2017-09-12T12:22:23.547Z,991.46
2017-09-12T12:23:23.541Z,991.42
2017-09-12T12:24:23.458Z,991.35
2017-09-12T12:25:23.436Z,991.38
2017-09-12T12:26:23.655Z,991.37
2017-09-12T12:27:23.437Z,991.36
2017-09-12T12:28:23.427Z,991.39